createdAt,value
2017-08-24T00:00:45.183Z,16.90
2017-08-24T00:03:11.603Z,16.80
2017-08-24T00:05:37.983Z,16.80
2017-08-24T00:08:04.487Z,16.70
2017-08-24T00:10:30.851Z,16.70
2017-08-24T00:12:57.314Z,16.70
2017-08-24T00:15:30.767Z,16.60
2017-08-24T00:17:57.139Z,16.70
2017-08-24T00:20:23.539Z,16.60
2017-08-24T00:22:50.019Z,16.50
2017-08-24T00:25:16.408Z,16.50
2017-08-24T00:27:42.811Z,16.50
2017-08-24T00:30:09.175Z,16.50
2017-08-24T00:32:36.707Z,16.40
2017-08-24T00:35:03.159Z,16.50
2017-08-24T00:37:29.560Z,16.50
2017-08-24T00:39:55.972Z,16.40
2017-08-24T00:42:23.432Z,16.40
2017-08-24T00:44:49.859Z,16.40
2017-08-24T00:47:16.252Z,16.30
2017-08-24T00:49:42.646Z,16.40
2017-08-24T00:52:09.095Z,16.30
2017-08-24T00:54:35.515Z,16.30
2017-08-24T00:57:01.941Z,16.30
2017-08-24T00:59:28.332Z,16.20
2017-08-24T01:01:54.875Z,16.20
2017-08-24T01:04:21.264Z,16.20
2017-08-24T01:06:47.677Z,16.20
2017-08-24T01:09:14.096Z,16.10
2017-08-24T01:11:40.519Z,16.10
2017-08-24T01:14:06.884Z,16.10
2017-08-24T01:16:33.279Z,16.00
2017-08-24T01:18:59.750Z,16.00
2017-08-24T01:21:26.317Z,16.00
2017-08-24T01:23:52.783Z,16.00
2017-08-24T01:26:19.198Z,16.00
2017-08-24T01:28:45.616Z,15.90
2017-08-24T01:31:13.107Z,15.90
2017-08-24T01:33:39.533Z,15.90
2017-08-24T01:36:05.907Z,15.90
2017-08-24T01:38:32.302Z,15.80
2017-08-24T01:40:58.687Z,15.80
2017-08-24T01:43:25.092Z,15.80
2017-08-24T01:45:51.496Z,15.80
2017-08-24T01:48:17.891Z,15.70
2017-08-24T01:50:44.412Z,15.70
2017-08-24T01:53:10.830Z,15.80
2017-08-24T01:55:37.256Z,15.80
2017-08-24T01:58:03.659Z,15.80
2017-08-24T02:00:30.086Z,15.80
2017-08-24T02:02:56.532Z,15.80
2017-08-24T02:05:22.918Z,15.80
2017-08-24T02:07:49.319Z,15.80
2017-08-24T02:10:15.696Z,15.80
2017-08-24T02:12:42.172Z,15.70
2017-08-24T02:15:08.544Z,15.70
2017-08-24T02:17:34.954Z,15.70
2017-08-24T02:20:01.372Z,15.70
2017-08-24T02:22:27.795Z,15.80
2017-08-24T02:24:54.189Z,15.70
2017-08-24T02:27:20.583Z,15.70
2017-08-24T02:29:46.968Z,15.70
2017-08-24T02:32:13.458Z,15.70
2017-08-24T02:34:39.841Z,15.80
2017-08-24T02:37:06.239Z,15.80
2017-08-24T02:39:32.613Z,15.80
2017-08-24T02:41:59.062Z,15.80
2017-08-24T02:44:25.463Z,15.80
2017-08-24T02:46:51.863Z,15.80
2017-08-24T02:49:18.247Z,15.90
2017-08-24T02:51:44.718Z,15.90
2017-08-24T02:54:11.092Z,15.90
2017-08-24T02:56:37.475Z,15.90
2017-08-24T02:59:03.856Z,15.80
2017-08-24T03:01:30.331Z,15.80
2017-08-24T03:03:56.720Z,15.80
2017-08-24T03:06:23.111Z,15.70
2017-08-24T03:08:49.507Z,15.70
2017-08-24T03:11:15.934Z,15.70
2017-08-24T03:13:42.350Z,15.80
2017-08-24T03:16:08.723Z,15.80
2017-08-24T03:18:35.127Z,15.70
2017-08-24T03:21:01.703Z,15.70
2017-08-24T03:23:28.075Z,15.70
2017-08-24T03:25:54.472Z,15.70
2017-08-24T03:28:20.842Z,15.70
2017-08-24T03:30:47.248Z,15.70
2017-08-24T03:33:13.758Z,15.60
2017-08-24T03:35:40.172Z,15.70
2017-08-24T03:38:06.596Z,15.70
2017-08-24T03:40:39.983Z,15.70
2017-08-24T03:43:06.441Z,15.60
2017-08-24T03:45:39.863Z,15.60
2017-08-24T03:48:06.276Z,15.60
2017-08-24T03:50:32.692Z,15.70
2017-08-24T03:53:00.156Z,15.60
2017-08-24T03:55:26.551Z,15.50
2017-08-24T03:57:52.971Z,15.50
2017-08-24T04:00:19.396Z,15.50
2017-08-24T04:02:45.872Z,15.50
2017-08-24T04:05:12.271Z,15.40
2017-08-24T04:07:38.677Z,15.40
2017-08-24T04:10:05.107Z,15.40
2017-08-24T04:12:31.546Z,15.30
2017-08-24T04:14:57.927Z,15.30
2017-08-24T04:17:24.340Z,15.30
2017-08-24T04:19:50.715Z,15.30
2017-08-24T04:22:17.136Z,15.40
2017-08-24T04:24:43.593Z,15.40
2017-08-24T04:27:09.996Z,15.40
2017-08-24T04:29:36.500Z,15.50
2017-08-24T04:32:02.991Z,15.50
2017-08-24T04:34:29.395Z,15.50
2017-08-24T04:36:55.795Z,15.60
2017-08-24T04:39:22.198Z,15.60
2017-08-24T04:41:48.708Z,15.70
2017-08-24T04:44:15.111Z,15.70
2017-08-24T04:46:41.783Z,15.70
2017-08-24T04:49:08.151Z,15.70
2017-08-24T04:51:34.631Z,15.70
2017-08-24T04:54:01.032Z,15.80
2017-08-24T04:56:27.407Z,15.80
2017-08-24T04:58:53.796Z,15.80
2017-08-24T05:01:20.278Z,15.90
2017-08-24T05:03:46.694Z,16.00
2017-08-24T05:06:13.279Z,16.00
2017-08-24T05:08:39.703Z,16.00
2017-08-24T05:11:06.117Z,16.00
2017-08-24T05:13:32.951Z,16.10
2017-08-24T05:15:59.387Z,16.10
2017-08-24T05:18:25.796Z,16.10
2017-08-24T05:20:52.175Z,16.20
2017-08-24T05:23:18.620Z,16.30
2017-08-24T05:25:45.009Z,16.30
2017-08-24T05:28:11.399Z,16.40
2017-08-24T05:30:37.815Z,16.40
2017-08-24T05:33:04.267Z,16.40
2017-08-24T05:35:30.640Z,16.40
2017-08-24T05:37:57.063Z,16.40
2017-08-24T05:40:23.520Z,16.50
2017-08-24T05:42:49.920Z,16.60
2017-08-24T05:45:16.323Z,16.70
2017-08-24T05:47:42.737Z,16.80
2017-08-24T05:50:09.130Z,16.80
2017-08-24T05:52:35.583Z,16.90
2017-08-24T05:55:01.972Z,16.90
2017-08-24T05:57:28.372Z,16.90
2017-08-24T05:59:54.780Z,17.00
2017-08-24T06:02:21.221Z,17.00
2017-08-24T06:04:47.587Z,17.10
2017-08-24T06:07:14.000Z,17.20
2017-08-24T06:09:40.392Z,17.30
2017-08-24T06:12:06.923Z,17.30
2017-08-24T06:14:33.304Z,17.30
2017-08-24T06:16:59.691Z,17.40
2017-08-24T06:19:26.088Z,17.40
2017-08-24T06:21:52.519Z,17.50
2017-08-24T06:24:18.927Z,17.50
2017-08-24T06:26:45.351Z,17.60
2017-08-24T06:29:11.727Z,17.60
2017-08-24T06:31:38.096Z,17.70
2017-08-24T06:34:04.932Z,17.80
2017-08-24T06:36:31.480Z,17.80
2017-08-24T06:38:57.899Z,17.80
2017-08-24T06:41:24.449Z,18.00
2017-08-24T06:43:51.028Z,18.00
2017-08-24T06:46:17.415Z,18.10
2017-08-24T06:48:43.911Z,18.10
2017-08-24T06:51:10.299Z,18.20
2017-08-24T06:53:36.696Z,18.20
2017-08-24T06:56:03.147Z,18.20
2017-08-24T06:58:29.535Z,18.30
2017-08-24T07:00:55.920Z,18.40
2017-08-24T07:03:22.330Z,18.40
2017-08-24T07:05:48.704Z,18.50
2017-08-24T07:08:15.096Z,18.50
2017-08-24T07:10:41.483Z,18.60
2017-08-24T07:13:07.896Z,18.70
2017-08-24T07:15:34.321Z,18.80
2017-08-24T07:18:00.703Z,18.80
2017-08-24T07:20:27.090Z,18.80
2017-08-24T07:22:53.498Z,18.80
2017-08-24T07:25:19.931Z,18.80
2017-08-24T07:27:46.663Z,18.80
2017-08-24T07:30:13.104Z,18.80
2017-08-24T07:32:39.506Z,18.90
2017-08-24T07:35:05.928Z,19.00
2017-08-24T07:37:32.476Z,19.00
2017-08-24T07:39:58.859Z,19.10
2017-08-24T07:42:25.248Z,19.10
2017-08-24T07:44:51.646Z,19.20
2017-08-24T07:47:18.027Z,19.20
2017-08-24T07:49:44.399Z,19.30
2017-08-24T07:52:10.799Z,19.30
2017-08-24T07:54:37.219Z,19.30
2017-08-24T07:57:03.604Z,19.40
2017-08-24T07:59:29.983Z,19.50
2017-08-24T08:01:56.399Z,19.50
2017-08-24T08:04:22.803Z,19.60
2017-08-24T08:06:49.209Z,19.60
2017-08-24T08:09:15.570Z,19.70
2017-08-24T08:11:42.083Z,19.80
2017-08-24T08:14:08.472Z,19.80
2017-08-24T08:16:34.842Z,19.90
2017-08-24T08:19:01.354Z,20.00
2017-08-24T08:21:27.800Z,20.10
2017-08-24T08:23:54.222Z,20.20
2017-08-24T08:26:20.638Z,20.30
2017-08-24T08:28:47.027Z,20.40
2017-08-24T08:31:13.456Z,20.40
2017-08-24T08:33:39.839Z,20.40
2017-08-24T08:36:06.226Z,20.50
2017-08-24T08:38:32.644Z,20.60
2017-08-24T08:40:59.027Z,20.70
2017-08-24T08:43:25.474Z,20.70
2017-08-24T08:45:51.885Z,20.80
2017-08-24T08:48:18.280Z,20.90
2017-08-24T08:50:44.658Z,20.90
2017-08-24T08:53:11.074Z,21.00
2017-08-24T08:55:37.450Z,21.10
2017-08-24T08:58:03.836Z,21.10
2017-08-24T09:00:30.290Z,21.10
2017-08-24T09:02:56.659Z,21.20
2017-08-24T09:05:23.103Z,21.30
2017-08-24T09:07:49.499Z,21.40
2017-08-24T09:10:15.867Z,21.50
2017-08-24T09:12:42.296Z,21.50
2017-08-24T09:15:08.722Z,21.50
2017-08-24T09:17:35.135Z,21.60
2017-08-24T09:20:01.524Z,21.60
2017-08-24T09:22:27.923Z,21.70
2017-08-24T09:24:54.348Z,21.80
2017-08-24T09:27:20.730Z,21.80
2017-08-24T09:29:47.167Z,22.00
2017-08-24T09:32:13.572Z,22.10
2017-08-24T09:34:39.972Z,22.20
2017-08-24T09:37:06.379Z,22.30
2017-08-24T09:39:32.791Z,22.40
2017-08-24T09:41:59.208Z,22.30
2017-08-24T09:44:25.587Z,22.30
2017-08-24T09:46:51.991Z,22.40
2017-08-24T09:49:18.356Z,22.40
2017-08-24T09:51:44.763Z,22.50
2017-08-24T09:54:11.163Z,22.60
2017-08-24T09:56:37.579Z,22.70
2017-08-24T09:59:03.959Z,22.80
2017-08-24T10:01:30.334Z,23.00
2017-08-24T10:03:56.748Z,23.10
2017-08-24T10:06:23.188Z,23.10
2017-08-24T10:08:49.643Z,23.30
2017-08-24T10:11:16.088Z,23.30
2017-08-24T10:13:42.515Z,23.30
2017-08-24T10:16:08.968Z,23.30
2017-08-24T10:18:35.410Z,23.40
2017-08-24T10:21:01.822Z,23.50
2017-08-24T10:23:28.232Z,23.50
2017-08-24T10:25:54.611Z,23.60
2017-08-24T10:28:20.998Z,23.70
2017-08-24T10:30:47.515Z,23.80
2017-08-24T10:33:13.840Z,23.90
2017-08-24T10:35:40.215Z,24.00
2017-08-24T10:38:06.620Z,24.20
2017-08-24T10:40:33.002Z,24.30
2017-08-24T10:42:59.399Z,24.40
2017-08-24T10:45:25.803Z,24.50
2017-08-24T10:47:52.203Z,24.60
2017-08-24T10:50:18.591Z,24.80
2017-08-24T10:52:45.007Z,24.90
2017-08-24T10:55:11.427Z,25.00
2017-08-24T10:57:37.820Z,25.10
2017-08-24T11:00:04.253Z,25.20
2017-08-24T11:02:30.723Z,25.30
2017-08-24T11:04:57.987Z,25.50
2017-08-24T11:07:24.407Z,25.70
2017-08-24T11:09:50.799Z,25.80
2017-08-24T11:12:17.228Z,25.80
2017-08-24T11:14:43.606Z,25.80
2017-08-24T11:17:10.024Z,25.80
2017-08-24T11:19:36.399Z,25.90
2017-08-24T11:22:02.799Z,26.10
2017-08-24T11:24:29.187Z,26.20
2017-08-24T11:26:55.603Z,26.20
2017-08-24T11:29:21.995Z,26.40
2017-08-24T11:31:48.412Z,26.50
2017-08-24T11:34:14.835Z,26.50
2017-08-24T11:36:41.210Z,26.50
2017-08-24T11:39:07.615Z,26.60
2017-08-24T11:41:34.031Z,26.70
2017-08-24T11:44:00.415Z,26.90
2017-08-24T11:46:26.910Z,27.00
2017-08-24T11:48:53.269Z,27.10
2017-08-24T11:51:19.683Z,27.30
2017-08-24T11:53:46.083Z,27.40
2017-08-24T11:56:12.455Z,27.60
2017-08-24T11:58:38.842Z,27.70
2017-08-24T12:01:05.263Z,27.90
2017-08-24T12:03:31.634Z,28.30
2017-08-24T12:05:58.047Z,28.40
2017-08-24T12:08:24.415Z,28.70
2017-08-24T12:10:50.799Z,29.00
2017-08-24T12:13:17.227Z,29.30
2017-08-24T12:15:43.659Z,29.60
2017-08-24T12:18:10.065Z,29.70
2017-08-24T12:20:36.447Z,29.90
2017-08-24T12:23:02.906Z,30.10
2017-08-24T12:25:29.295Z,30.20
2017-08-24T12:27:55.675Z,30.40
2017-08-24T12:30:22.179Z,30.60
2017-08-24T12:32:48.583Z,30.80
2017-08-24T12:35:14.963Z,30.90
2017-08-24T12:37:41.374Z,31.30
2017-08-24T12:40:07.764Z,31.40
2017-08-24T12:42:34.191Z,31.50
2017-08-24T12:45:00.595Z,31.90
2017-08-24T12:47:27.031Z,32.10
2017-08-24T12:49:53.476Z,32.20
2017-08-24T12:52:19.929Z,32.30
2017-08-24T12:54:46.304Z,32.30
2017-08-24T12:57:12.708Z,32.40
2017-08-24T12:59:39.114Z,32.20
2017-08-24T13:02:05.498Z,31.80
2017-08-24T13:04:31.892Z,32.30
2017-08-24T13:06:58.367Z,32.60
2017-08-24T13:09:24.751Z,32.80
2017-08-24T13:11:51.166Z,32.70
2017-08-24T13:14:17.539Z,32.60
2017-08-24T13:16:44.310Z,32.80
2017-08-24T13:19:10.875Z,32.90
2017-08-24T13:21:37.272Z,33.20
2017-08-24T13:24:03.784Z,33.20
2017-08-24T13:26:30.188Z,33.30
2017-08-24T13:28:56.575Z,33.70
2017-08-24T13:31:22.991Z,33.60
2017-08-24T13:33:49.368Z,33.70
2017-08-24T13:36:15.736Z,33.60
2017-08-24T13:38:42.168Z,33.40
2017-08-24T13:41:08.587Z,33.40
2017-08-24T13:43:34.984Z,33.60
2017-08-24T13:46:01.378Z,34.00
2017-08-24T13:48:27.811Z,34.10
2017-08-24T13:50:54.194Z,34.20
2017-08-24T13:53:20.598Z,34.10
2017-08-24T13:55:46.977Z,33.80
2017-08-24T13:58:13.346Z,34.30
2017-08-24T14:00:39.754Z,34.50
2017-08-24T14:03:06.134Z,34.10
2017-08-24T14:05:32.532Z,34.30
2017-08-24T14:07:58.947Z,34.50
2017-08-24T14:10:25.323Z,34.50
2017-08-24T14:12:51.735Z,34.60
2017-08-24T14:15:18.139Z,34.70
2017-08-24T14:17:44.545Z,34.60
2017-08-24T14:20:10.934Z,34.60
2017-08-24T14:22:37.324Z,34.60
2017-08-24T14:25:03.732Z,34.20
2017-08-24T14:27:30.115Z,34.40
2017-08-24T14:29:56.500Z,34.00
2017-08-24T14:32:22.917Z,33.80
2017-08-24T14:34:49.316Z,34.10
2017-08-24T14:37:15.727Z,34.20
2017-08-24T14:39:42.112Z,34.30
2017-08-24T14:42:23.460Z,33.90
2017-08-24T14:44:49.873Z,33.70
2017-08-24T14:47:16.295Z,33.60
2017-08-24T14:49:42.683Z,33.70
2017-08-24T14:52:09.070Z,33.60
2017-08-24T14:54:35.447Z,33.40
2017-08-24T14:57:01.856Z,33.30
2017-08-24T14:59:28.244Z,33.40
2017-08-24T15:01:54.635Z,33.50
2017-08-24T15:04:21.030Z,33.70
2017-08-24T15:06:47.419Z,33.40
2017-08-24T15:09:13.800Z,33.30
2017-08-24T15:11:40.206Z,32.90
2017-08-24T15:14:06.595Z,32.50
2017-08-24T15:16:33.103Z,32.20
2017-08-24T15:18:59.503Z,31.90
2017-08-24T15:21:25.986Z,31.50
2017-08-24T15:23:52.529Z,31.30
2017-08-24T15:26:18.927Z,31.20
2017-08-24T15:28:45.375Z,30.90
2017-08-24T15:31:11.767Z,30.80
2017-08-24T15:33:38.199Z,30.70
2017-08-24T15:36:04.581Z,30.70
2017-08-24T15:38:31.008Z,30.40
2017-08-24T15:40:57.390Z,30.10
2017-08-24T15:43:23.810Z,30.10
2017-08-24T15:45:50.330Z,30.00
2017-08-24T15:48:16.732Z,30.00
2017-08-24T15:50:43.123Z,29.90
2017-08-24T15:53:09.602Z,29.70
2017-08-24T15:55:36.068Z,29.60
2017-08-24T15:58:02.663Z,29.50
2017-08-24T16:00:29.267Z,29.40
2017-08-24T16:02:55.704Z,29.40
2017-08-24T16:05:22.096Z,29.40
2017-08-24T16:07:49.253Z,29.20
2017-08-24T16:10:15.673Z,29.20
2017-08-24T16:12:42.862Z,29.10
2017-08-24T16:15:09.375Z,29.00
2017-08-24T16:17:35.764Z,29.00
2017-08-24T16:20:02.157Z,28.90
2017-08-24T16:22:28.638Z,28.80
2017-08-24T16:24:55.011Z,28.80
2017-08-24T16:27:21.394Z,28.70
2017-08-24T16:29:47.807Z,28.50
2017-08-24T16:32:14.239Z,28.40
2017-08-24T16:34:40.672Z,28.30
2017-08-24T16:37:07.084Z,28.30
2017-08-24T16:39:33.504Z,28.30
2017-08-24T16:41:59.975Z,28.20
2017-08-24T16:44:26.383Z,27.90
2017-08-24T16:46:52.775Z,27.80
2017-08-24T16:49:19.179Z,27.80
2017-08-24T16:51:45.616Z,27.90
2017-08-24T16:54:12.015Z,28.00
2017-08-24T16:56:38.391Z,28.00
2017-08-24T16:59:04.815Z,27.90
2017-08-24T17:01:31.268Z,27.80
2017-08-24T17:03:57.670Z,27.80
2017-08-24T17:06:24.067Z,27.70
2017-08-24T17:08:50.472Z,27.70
2017-08-24T17:11:16.985Z,27.70
2017-08-24T17:13:43.706Z,27.60
2017-08-24T17:16:10.159Z,27.50
2017-08-24T17:18:36.535Z,27.40
2017-08-24T17:21:02.927Z,27.40
2017-08-24T17:23:29.335Z,27.40
2017-08-24T17:25:55.736Z,27.30
2017-08-24T17:28:22.193Z,27.30
2017-08-24T17:30:48.595Z,27.30
2017-08-24T17:33:15.083Z,27.30
2017-08-24T17:35:41.513Z,27.20
2017-08-24T17:38:08.390Z,27.10
2017-08-24T17:40:34.851Z,26.90
2017-08-24T17:43:01.291Z,26.70
2017-08-24T17:45:27.691Z,26.60
2017-08-24T17:47:54.054Z,26.40
2017-08-24T17:50:20.487Z,26.40
2017-08-24T17:52:46.920Z,26.30
2017-08-24T17:55:13.336Z,26.20
2017-08-24T17:57:39.796Z,26.00
2017-08-24T18:00:06.227Z,25.90
2017-08-24T18:02:32.704Z,25.90
2017-08-24T18:04:59.168Z,25.80
2017-08-24T18:07:25.570Z,25.50
2017-08-24T18:09:51.940Z,25.40
2017-08-24T18:12:18.388Z,25.30
2017-08-24T18:14:44.794Z,25.30
2017-08-24T18:17:11.163Z,25.20
2017-08-24T18:19:44.496Z,25.10
2017-08-24T18:22:11.000Z,25.00
2017-08-24T18:24:38.278Z,25.00
2017-08-24T18:27:04.659Z,24.90
2017-08-24T18:29:31.131Z,24.80
2017-08-24T18:31:57.632Z,24.70
2017-08-24T18:34:24.043Z,24.60
2017-08-24T18:36:50.430Z,24.60
2017-08-24T18:39:16.851Z,24.50
2017-08-24T18:41:43.283Z,24.40
2017-08-24T18:44:09.698Z,24.30
2017-08-24T18:46:36.091Z,24.20
2017-08-24T18:49:02.525Z,24.20
2017-08-24T18:51:29.370Z,24.10
2017-08-24T18:53:55.821Z,24.00
2017-08-24T18:56:22.207Z,23.80
2017-08-24T18:58:48.612Z,23.70
2017-08-24T19:01:15.037Z,23.70
2017-08-24T19:03:41.470Z,23.60
2017-08-24T19:06:07.856Z,23.50
2017-08-24T19:08:34.239Z,23.50
2017-08-24T19:11:00.666Z,23.50
2017-08-24T19:13:27.115Z,23.50
2017-08-24T19:15:53.564Z,23.50
2017-08-24T19:18:19.947Z,23.40
2017-08-24T19:20:46.395Z,23.40
2017-08-24T19:23:13.010Z,23.30
2017-08-24T19:25:39.431Z,23.30
2017-08-24T19:28:13.527Z,23.20
2017-08-24T19:30:39.946Z,23.10
2017-08-24T19:33:06.371Z,23.10
2017-08-24T19:35:32.775Z,23.00
2017-08-24T19:37:59.152Z,23.10
2017-08-24T19:40:25.945Z,23.00
2017-08-24T19:42:52.536Z,23.00
2017-08-24T19:45:18.922Z,22.90
2017-08-24T19:47:45.312Z,22.90
2017-08-24T19:50:11.715Z,22.90
2017-08-24T19:52:38.119Z,22.90
2017-08-24T19:55:04.532Z,22.90
2017-08-24T19:57:34.238Z,23.00
2017-08-24T20:00:00.676Z,23.00
2017-08-24T20:02:27.230Z,23.00
2017-08-24T20:04:53.623Z,23.00
2017-08-24T20:07:20.049Z,23.00
2017-08-24T20:09:46.533Z,23.00
2017-08-24T20:12:13.340Z,23.00
2017-08-24T20:14:39.788Z,23.00
2017-08-24T20:17:06.171Z,23.00
2017-08-24T20:19:32.571Z,23.00
2017-08-24T20:21:59.025Z,22.90
2017-08-24T20:24:25.431Z,22.80
2017-08-24T20:26:51.798Z,22.80
2017-08-24T20:29:18.218Z,22.80
2017-08-24T20:31:44.635Z,22.80
2017-08-24T20:34:11.074Z,22.80
2017-08-24T20:36:37.461Z,22.70
2017-08-24T20:39:11.761Z,22.70
2017-08-24T20:41:38.243Z,22.70
2017-08-24T20:44:04.643Z,22.70
2017-08-24T20:46:31.072Z,22.70
2017-08-24T20:48:57.490Z,22.70
2017-08-24T20:51:23.975Z,22.70
2017-08-24T20:53:50.347Z,22.70
2017-08-24T20:56:16.768Z,22.70
2017-08-24T20:59:02.576Z,22.70
2017-08-24T21:01:29.118Z,22.70
2017-08-24T21:03:55.556Z,22.60
2017-08-24T21:06:22.253Z,22.70
2017-08-24T21:08:48.752Z,22.60
2017-08-24T21:11:15.324Z,22.60
2017-08-24T21:13:41.727Z,22.50
2017-08-24T21:16:08.103Z,22.50
2017-08-24T21:18:34.536Z,22.40
2017-08-24T21:21:00.976Z,22.40
2017-08-24T21:23:27.375Z,22.30
2017-08-24T21:25:53.784Z,22.30
2017-08-24T21:28:20.146Z,22.30
2017-08-24T21:30:46.532Z,22.20
2017-08-24T21:33:13.007Z,22.20
2017-08-24T21:35:39.423Z,22.20
2017-08-24T21:38:05.815Z,22.20
2017-08-24T21:40:32.228Z,22.20
2017-08-24T21:42:58.672Z,22.20
2017-08-24T21:45:25.055Z,22.10
2017-08-24T21:47:51.438Z,22.10
2017-08-24T21:50:17.851Z,22.00
2017-08-24T21:52:44.245Z,22.00
2017-08-24T22:04:05.272Z,21.90
2017-08-24T22:06:31.659Z,21.80
2017-08-24T23:32:15.811Z,20.60
2017-08-24T23:34:42.183Z,20.60
2017-08-24T23:37:08.593Z,20.60
2017-08-24T23:39:34.964Z,20.50
2017-08-24T23:42:01.400Z,20.50
2017-08-24T23:44:27.820Z,20.50
